sensor_id;sensor_type;location;lat;lon;timestamp;P1;durP1;ratioP1;P2;durP2;ratioP2
6549;SDS011;15142;48.888;9.134;2023-06-14T00:00:47;4.10;;;3.60;;
6549;SDS011;15142;48.888;9.134;2023-06-14T00:03:18;5.03;;;3.40;;
6549;SDS011;15142;48.888;9.134;2023-06-14T00:05:47;4.17;;;3.77;;
6549;SDS011;15142;48.888;9.134;2023-06-14T00:08:16;5.07;;;3.50;;
6549;SDS011;15142;48.888;9.134;2023-06-14T00:10:49;6.50;;;3.60;;
6549;SDS011;15142;48.888;9.134;2023-06-14T00:13:17;4.20;;;3.30;;
6549;SDS011;15142;48.888;9.134;2023-06-14T00:15:46;5.50;;;4.10;;
6549;SDS011;15142;48.888;9.134;2023-06-14T00:18:15;5.60;;;4.40;;
6549;SDS011;15142;48.888;9.134;2023-06-14T00:20:43;11.10;;;4.73;;
6549;SDS011;15142;48.888;9.134;2023-06-14T00:23:12;4.03;;;3.63;;
6549;SDS011;15142;48.888;9.134;2023-06-14T00:25:41;4.20;;;3.83;;
6549;SDS011;15142;48.888;9.134;2023-06-14T00:28:14;4.37;;;3.40;;
6549;SDS011;15142;48.888;9.134;2023-06-14T00:30:43;3.77;;;3.37;;
6549;SDS011;15142;48.888;9.134;2023-06-14T00:33:12;5.20;;;3.33;;
6549;SDS011;15142;48.888;9.134;2023-06-14T00:35:43;5.93;;;4.07;;
6549;SDS011;15142;48.888;9.134;2023-06-14T00:38:13;4.30;;;3.90;;
6549;SDS011;15142;48.888;9.134;2023-06-14T00:40:41;4.07;;;3.30;;
6549;SDS011;15142;48.888;9.134;2023-06-14T00:43:15;4.33;;;3.90;;
6549;SDS011;15142;48.888;9.134;2023-06-14T00:45:44;4.37;;;3.40;;
6549;SDS011;15142;48.888;9.134;2023-06-14T00:48:15;6.80;;;3.70;;
6549;SDS011;15142;48.888;9.134;2023-06-14T00:50:43;4.60;;;3.57;;
6549;SDS011;15142;48.888;9.134;2023-06-14T00:53:14;4.63;;;4.10;;
6549;SDS011;15142;48.888;9.134;2023-06-14T00:55:44;5.67;;;4.60;;
6549;SDS011;15142;48.888;9.134;2023-06-14T00:58:18;5.97;;;4.10;;
6549;SDS011;15142;48.888;9.134;2023-06-14T01:00:48;3.77;;;3.47;;
6549;SDS011;15142;48.888;9.134;2023-06-14T01:03:16;4.37;;;3.43;;
6549;SDS011;15142;48.888;9.134;2023-06-14T01:05:47;6.10;;;3.90;;
6549;SDS011;15142;48.888;9.134;2023-06-14T01:08:21;4.60;;;3.73;;
6549;SDS011;15142;48.888;9.134;2023-06-14T01:10:56;7.10;;;4.60;;
6549;SDS011;15142;48.888;9.134;2023-06-14T01:13:36;4.40;;;3.73;;
6549;SDS011;15142;48.888;9.134;2023-06-14T01:16:08;4.40;;;3.87;;
6549;SDS011;15142;48.888;9.134;2023-06-14T01:18:37;4.20;;;3.77;;
6549;SDS011;15142;48.888;9.134;2023-06-14T01:21:19;4.20;;;3.80;;
6549;SDS011;15142;48.888;9.134;2023-06-14T01:23:51;8.97;;;4.30;;
6549;SDS011;15142;48.888;9.134;2023-06-14T01:26:21;7.67;;;4.73;;
6549;SDS011;15142;48.888;9.134;2023-06-14T01:28:51;5.30;;;4.00;;
6549;SDS011;15142;48.888;9.134;2023-06-14T01:31:24;8.10;;;3.90;;
6549;SDS011;15142;48.888;9.134;2023-06-14T01:33:55;4.63;;;3.60;;
6549;SDS011;15142;48.888;9.134;2023-06-14T01:36:24;7.80;;;4.13;;
6549;SDS011;15142;48.888;9.134;2023-06-14T01:38:59;6.23;;;4.60;;
6549;SDS011;15142;48.888;9.134;2023-06-14T01:41:28;9.20;;;4.50;;
6549;SDS011;15142;48.888;9.134;2023-06-14T01:43:58;10.10;;;4.77;;
6549;SDS011;15142;48.888;9.134;2023-06-14T01:46:28;3.60;;;3.30;;
6549;SDS011;15142;48.888;9.134;2023-06-14T01:48:56;4.10;;;3.80;;
6549;SDS011;15142;48.888;9.134;2023-06-14T01:51:26;5.20;;;4.37;;
6549;SDS011;15142;48.888;9.134;2023-06-14T01:53:54;5.93;;;4.07;;
6549;SDS011;15142;48.888;9.134;2023-06-14T01:56:25;7.33;;;4.00;;
6549;SDS011;15142;48.888;9.134;2023-06-14T01:58:55;4.70;;;4.27;;
6549;SDS011;15142;48.888;9.134;2023-06-14T02:01:24;7.73;;;4.80;;
6549;SDS011;15142;48.888;9.134;2023-06-14T02:03:53;10.57;;;4.67;;
6549;SDS011;15142;48.888;9.134;2023-06-14T02:06:21;6.53;;;4.23;;
6549;SDS011;15142;48.888;9.134;2023-06-14T02:08:50;9.33;;;4.20;;
6549;SDS011;15142;48.888;9.134;2023-06-14T02:11:19;9.87;;;4.20;;
6549;SDS011;15142;48.888;9.134;2023-06-14T02:13:52;6.87;;;4.43;;
6549;SDS011;15142;48.888;9.134;2023-06-14T02:16:20;4.47;;;3.40;;
6549;SDS011;15142;48.888;9.134;2023-06-14T02:18:50;6.20;;;4.40;;
6549;SDS011;15142;48.888;9.134;2023-06-14T02:21:18;3.63;;;3.33;;
6549;SDS011;15142;48.888;9.134;2023-06-14T02:23:47;5.07;;;3.93;;
6549;SDS011;15142;48.888;9.134;2023-06-14T02:26:16;5.20;;;4.30;;
6549;SDS011;15142;48.888;9.134;2023-06-14T02:28:44;5.67;;;4.70;;
6549;SDS011;15142;48.888;9.134;2023-06-14T02:31:16;5.07;;;4.60;;
6549;SDS011;15142;48.888;9.134;2023-06-14T02:33:44;6.30;;;4.70;;
6549;SDS011;15142;48.888;9.134;2023-06-14T02:36:13;5.87;;;3.97;;
6549;SDS011;15142;48.888;9.134;2023-06-14T02:38:42;6.23;;;4.77;;
6549;SDS011;15142;48.888;9.134;2023-06-14T02:41:11;8.87;;;4.50;;
6549;SDS011;15142;48.888;9.134;2023-06-14T02:43:39;13.50;;;5.10;;
6549;SDS011;15142;48.888;9.134;2023-06-14T02:46:08;7.27;;;5.10;;
6549;SDS011;15142;48.888;9.134;2023-06-14T02:48:39;5.90;;;4.30;;
6549;SDS011;15142;48.888;9.134;2023-06-14T02:51:08;5.70;;;4.47;;
6549;SDS011;15142;48.888;9.134;2023-06-14T02:53:38;4.63;;;3.50;;
6549;SDS011;15142;48.888;9.134;2023-06-14T02:56:07;4.50;;;4.10;;
6549;SDS011;15142;48.888;9.134;2023-06-14T02:58:37;5.23;;;3.87;;
6549;SDS011;15142;48.888;9.134;2023-06-14T03:01:06;10.70;;;4.60;;
6549;SDS011;15142;48.888;9.134;2023-06-14T03:03:40;7.10;;;4.37;;
6549;SDS011;15142;48.888;9.134;2023-06-14T03:06:09;7.27;;;4.90;;
6549;SDS011;15142;48.888;9.134;2023-06-14T03:08:40;6.67;;;4.27;;
6549;SDS011;15142;48.888;9.134;2023-06-14T03:11:13;5.93;;;5.17;;
6549;SDS011;15142;48.888;9.134;2023-06-14T03:13:42;9.07;;;4.13;;
6549;SDS011;15142;48.888;9.134;2023-06-14T03:16:12;9.60;;;4.80;;
6549;SDS011;15142;48.888;9.134;2023-06-14T03:18:46;7.20;;;5.13;;
6549;SDS011;15142;48.888;9.134;2023-06-14T03:21:14;11.63;;;5.23;;
6549;SDS011;15142;48.888;9.134;2023-06-14T03:23:45;5.67;;;5.00;;
6549;SDS011;15142;48.888;9.134;2023-06-14T03:26:14;9.90;;;5.47;;
6549;SDS011;15142;48.888;9.134;2023-06-14T03:28:44;6.90;;;5.00;;
6549;SDS011;15142;48.888;9.134;2023-06-14T03:31:13;7.70;;;5.20;;
6549;SDS011;15142;48.888;9.134;2023-06-14T03:33:47;6.70;;;5.10;;
6549;SDS011;15142;48.888;9.134;2023-06-14T03:36:17;11.30;;;5.03;;
6549;SDS011;15142;48.888;9.134;2023-06-14T03:38:46;8.47;;;5.60;;
6549;SDS011;15142;48.888;9.134;2023-06-14T03:41:16;7.40;;;5.83;;
6549;SDS011;15142;48.888;9.134;2023-06-14T03:43:45;8.03;;;5.10;;
6549;SDS011;15142;48.888;9.134;2023-06-14T03:46:14;8.57;;;5.73;;
6549;SDS011;15142;48.888;9.134;2023-06-14T03:48:43;6.77;;;5.57;;
6549;SDS011;15142;48.888;9.134;2023-06-14T03:51:15;7.20;;;5.20;;
6549;SDS011;15142;48.888;9.134;2023-06-14T03:53:44;10.57;;;4.80;;
6549;SDS011;15142;48.888;9.134;2023-06-14T03:56:13;6.33;;;5.30;;
6549;SDS011;15142;48.888;9.134;2023-06-14T03:58:42;5.80;;;4.23;;
6549;SDS011;15142;48.888;9.134;2023-06-14T04:01:11;11.87;;;5.43;;
6549;SDS011;15142;48.888;9.134;2023-06-14T04:03:40;9.30;;;5.40;;
6549;SDS011;15142;48.888;9.134;2023-06-14T04:06:10;6.30;;;4.17;;
6549;SDS011;15142;48.888;9.134;2023-06-14T04:08:47;6.70;;;5.50;;
6549;SDS011;15142;48.888;9.134;2023-06-14T04:11:15;5.60;;;4.43;;
6549;SDS011;15142;48.888;9.134;2023-06-14T04:13:45;7.00;;;5.20;;
6549;SDS011;15142;48.888;9.134;2023-06-14T04:16:13;8.77;;;5.03;;
6549;SDS011;15142;48.888;9.134;2023-06-14T04:18:42;10.23;;;4.87;;
6549;SDS011;15142;48.888;9.134;2023-06-14T04:21:12;8.20;;;4.60;;
6549;SDS011;15142;48.888;9.134;2023-06-14T04:23:40;10.77;;;4.90;;
6549;SDS011;15142;48.888;9.134;2023-06-14T04:26:13;7.50;;;5.27;;
6549;SDS011;15142;48.888;9.134;2023-06-14T04:28:44;9.40;;;5.30;;
6549;SDS011;15142;48.888;9.134;2023-06-14T04:31:13;13.47;;;5.93;;
6549;SDS011;15142;48.888;9.134;2023-06-14T04:33:42;8.70;;;5.57;;
6549;SDS011;15142;48.888;9.134;2023-06-14T04:36:16;7.23;;;5.20;;
6549;SDS011;15142;48.888;9.134;2023-06-14T04:38:47;17.27;;;8.13;;
6549;SDS011;15142;48.888;9.134;2023-06-14T04:41:23;13.03;;;6.67;;
6549;SDS011;15142;48.888;9.134;2023-06-14T04:43:56;8.67;;;5.90;;
6549;SDS011;15142;48.888;9.134;2023-06-14T04:46:28;6.37;;;4.67;;
6549;SDS011;15142;48.888;9.134;2023-06-14T04:48:57;5.90;;;4.07;;
6549;SDS011;15142;48.888;9.134;2023-06-14T04:51:28;16.63;;;4.57;;
6549;SDS011;15142;48.888;9.134;2023-06-14T04:53:59;8.00;;;4.60;;
6549;SDS011;15142;48.888;9.134;2023-06-14T04:56:32;6.67;;;4.53;;
6549;SDS011;15142;48.888;9.134;2023-06-14T04:59:00;8.73;;;4.47;;
6549;SDS011;15142;48.888;9.134;2023-06-14T05:01:30;7.40;;;4.20;;
6549;SDS011;15142;48.888;9.134;2023-06-14T05:03:59;5.03;;;4.23;;
6549;SDS011;15142;48.888;9.134;2023-06-14T05:06:28;6.37;;;4.60;;
6549;SDS011;15142;48.888;9.134;2023-06-14T05:08:58;8.67;;;5.17;;
6549;SDS011;15142;48.888;9.134;2023-06-14T05:11:28;11.30;;;5.00;;
6549;SDS011;15142;48.888;9.134;2023-06-14T05:13:59;5.83;;;5.17;;
6549;SDS011;15142;48.888;9.134;2023-06-14T05:16:28;5.93;;;4.33;;
6549;SDS011;15142;48.888;9.134;2023-06-14T05:18:56;4.77;;;4.37;;
6549;SDS011;15142;48.888;9.134;2023-06-14T05:21:27;4.90;;;4.40;;
6549;SDS011;15142;48.888;9.134;2023-06-14T05:23:56;8.10;;;5.37;;
6549;SDS011;15142;48.888;9.134;2023-06-14T05:26:24;6.33;;;4.40;;
6549;SDS011;15142;48.888;9.134;2023-06-14T05:28:53;5.17;;;4.00;;
6549;SDS011;15142;48.888;9.134;2023-06-14T05:31:25;5.67;;;4.27;;
6549;SDS011;15142;48.888;9.134;2023-06-14T05:33:54;7.60;;;4.43;;
6549;SDS011;15142;48.888;9.134;2023-06-14T05:36:22;5.47;;;4.80;;
6549;SDS011;15142;48.888;9.134;2023-06-14T05:38:51;6.10;;;4.40;;
6549;SDS011;15142;48.888;9.134;2023-06-14T05:41:23;4.27;;;3.73;;
6549;SDS011;15142;48.888;9.134;2023-06-14T05:43:52;28.27;;;4.87;;
6549;SDS011;15142;48.888;9.134;2023-06-14T05:46:21;5.47;;;4.47;;
6549;SDS011;15142;48.888;9.134;2023-06-14T05:48:53;5.43;;;4.40;;
6549;SDS011;15142;48.888;9.134;2023-06-14T05:51:23;5.77;;;4.67;;
6549;SDS011;15142;48.888;9.134;2023-06-14T05:53:52;5.57;;;4.50;;
6549;SDS011;15142;48.888;9.134;2023-06-14T05:56:22;7.67;;;4.30;;
6549;SDS011;15142;48.888;9.134;2023-06-14T05:58:51;7.70;;;5.30;;
6549;SDS011;15142;48.888;9.134;2023-06-14T06:01:19;14.43;;;5.43;;
6549;SDS011;15142;48.888;9.134;2023-06-14T06:03:48;6.13;;;5.10;;
6549;SDS011;15142;48.888;9.134;2023-06-14T06:06:19;6.90;;;4.80;;
6549;SDS011;15142;48.888;9.134;2023-06-14T06:08:48;9.73;;;4.47;;
6549;SDS011;15142;48.888;9.134;2023-06-14T06:11:16;8.93;;;4.87;;
6549;SDS011;15142;48.888;9.134;2023-06-14T06:13:45;8.60;;;3.50;;
6549;SDS011;15142;48.888;9.134;2023-06-14T06:16:14;7.23;;;4.60;;
6549;SDS011;15142;48.888;9.134;2023-06-14T06:18:42;12.40;;;5.27;;
6549;SDS011;15142;48.888;9.134;2023-06-14T06:21:11;6.80;;;5.00;;
6549;SDS011;15142;48.888;9.134;2023-06-14T06:23:43;7.30;;;4.27;;
6549;SDS011;15142;48.888;9.134;2023-06-14T06:26:11;6.77;;;6.07;;
6549;SDS011;15142;48.888;9.134;2023-06-14T06:28:40;9.17;;;5.20;;
6549;SDS011;15142;48.888;9.134;2023-06-14T06:31:09;6.07;;;4.20;;
6549;SDS011;15142;48.888;9.134;2023-06-14T06:33:38;4.93;;;3.73;;
6549;SDS011;15142;48.888;9.134;2023-06-14T06:36:07;6.80;;;4.57;;
6549;SDS011;15142;48.888;9.134;2023-06-14T06:38:36;15.70;;;5.77;;
6549;SDS011;15142;48.888;9.134;2023-06-14T06:41:07;6.33;;;3.93;;
6549;SDS011;15142;48.888;9.134;2023-06-14T06:43:35;5.70;;;4.53;;
6549;SDS011;15142;48.888;9.134;2023-06-14T06:46:04;6.90;;;4.20;;
6549;SDS011;15142;48.888;9.134;2023-06-14T06:48:33;4.60;;;4.20;;
6549;SDS011;15142;48.888;9.134;2023-06-14T06:51:01;11.50;;;4.07;;
6549;SDS011;15142;48.888;9.134;2023-06-14T06:53:30;8.40;;;4.20;;
6549;SDS011;15142;48.888;9.134;2023-06-14T06:55:59;7.80;;;4.00;;
6549;SDS011;15142;48.888;9.134;2023-06-14T06:58:30;6.07;;;4.37;;
6549;SDS011;15142;48.888;9.134;2023-06-14T07:00:59;14.80;;;4.40;;
6549;SDS011;15142;48.888;9.134;2023-06-14T07:03:27;6.40;;;4.97;;
6549;SDS011;15142;48.888;9.134;2023-06-14T07:05:56;4.30;;;3.87;;
6549;SDS011;15142;48.888;9.134;2023-06-14T07:08:24;8.83;;;4.10;;
6549;SDS011;15142;48.888;9.134;2023-06-14T07:10:53;8.97;;;3.80;;
6549;SDS011;15142;48.888;9.134;2023-06-14T07:13:22;8.10;;;3.63;;
6549;SDS011;15142;48.888;9.134;2023-06-14T07:15:53;5.53;;;3.93;;
6549;SDS011;15142;48.888;9.134;2023-06-14T07:18:22;6.83;;;5.30;;
6549;SDS011;15142;48.888;9.134;2023-06-14T07:20:52;8.87;;;4.37;;
6549;SDS011;15142;48.888;9.134;2023-06-14T07:23:21;9.50;;;4.00;;
6549;SDS011;15142;48.888;9.134;2023-06-14T07:25:50;5.37;;;4.27;;
6549;SDS011;15142;48.888;9.134;2023-06-14T07:28:19;10.27;;;5.27;;
6549;SDS011;15142;48.888;9.134;2023-06-14T07:30:47;4.87;;;4.37;;
6549;SDS011;15142;48.888;9.134;2023-06-14T07:33:19;6.17;;;4.87;;
6549;SDS011;15142;48.888;9.134;2023-06-14T07:35:47;5.40;;;4.87;;
6549;SDS011;15142;48.888;9.134;2023-06-14T07:38:17;6.70;;;4.83;;
6549;SDS011;15142;48.888;9.134;2023-06-14T07:40:46;5.83;;;4.27;;
6549;SDS011;15142;48.888;9.134;2023-06-14T07:43:14;5.87;;;4.97;;
6549;SDS011;15142;48.888;9.134;2023-06-14T07:45:43;5.00;;;4.60;;
6549;SDS011;15142;48.888;9.134;2023-06-14T07:48:12;9.33;;;4.67;;
6549;SDS011;15142;48.888;9.134;2023-06-14T07:50:43;10.27;;;5.70;;
6549;SDS011;15142;48.888;9.134;2023-06-14T07:53:11;10.43;;;5.03;;
6549;SDS011;15142;48.888;9.134;2023-06-14T07:55:40;6.20;;;4.87;;
6549;SDS011;15142;48.888;9.134;2023-06-14T07:58:08;4.47;;;4.07;;
6549;SDS011;15142;48.888;9.134;2023-06-14T08:00:38;4.90;;;4.40;;
6549;SDS011;15142;48.888;9.134;2023-06-14T08:03:06;5.40;;;4.73;;
6549;SDS011;15142;48.888;9.134;2023-06-14T08:05:35;4.30;;;3.90;;
6549;SDS011;15142;48.888;9.134;2023-06-14T08:08:06;7.63;;;5.23;;
6549;SDS011;15142;48.888;9.134;2023-06-14T08:10:34;6.90;;;4.20;;
6549;SDS011;15142;48.888;9.134;2023-06-14T08:13:03;5.20;;;4.03;;
6549;SDS011;15142;48.888;9.134;2023-06-14T08:15:32;5.27;;;4.80;;
6549;SDS011;15142;48.888;9.134;2023-06-14T08:18:00;8.30;;;4.33;;
6549;SDS011;15142;48.888;9.134;2023-06-14T08:20:29;4.60;;;4.10;;
6549;SDS011;15142;48.888;9.134;2023-06-14T08:22:58;7.03;;;4.37;;
6549;SDS011;15142;48.888;9.134;2023-06-14T08:25:30;4.57;;;3.70;;
6549;SDS011;15142;48.888;9.134;2023-06-14T08:27:58;8.43;;;4.67;;
6549;SDS011;15142;48.888;9.134;2023-06-14T08:30:27;7.27;;;4.50;;
6549;SDS011;15142;48.888;9.134;2023-06-14T08:32:55;4.60;;;4.20;;
6549;SDS011;15142;48.888;9.134;2023-06-14T08:35:24;7.30;;;4.20;;
6549;SDS011;15142;48.888;9.134;2023-06-14T08:37:52;5.57;;;4.90;;
6549;SDS011;15142;48.888;9.134;2023-06-14T08:40:22;3.80;;;3.40;;
6549;SDS011;15142;48.888;9.134;2023-06-14T08:42:54;6.40;;;4.73;;
6549;SDS011;15142;48.888;9.134;2023-06-14T08:45:23;14.37;;;4.23;;
6549;SDS011;15142;48.888;9.134;2023-06-14T08:47:53;4.57;;;4.20;;
6549;SDS011;15142;48.888;9.134;2023-06-14T08:50:23;4.50;;;4.10;;
6549;SDS011;15142;48.888;9.134;2023-06-14T08:52:55;9.80;;;4.43;;
6549;SDS011;15142;48.888;9.134;2023-06-14T08:55:25;9.57;;;4.00;;
6549;SDS011;15142;48.888;9.134;2023-06-14T08:57:58;5.03;;;3.97;;
6549;SDS011;15142;48.888;9.134;2023-06-14T09:00:28;7.90;;;4.60;;
6549;SDS011;15142;48.888;9.134;2023-06-14T09:02:58;5.43;;;3.23;;
6549;SDS011;15142;48.888;9.134;2023-06-14T09:05:27;6.10;;;4.93;;
6549;SDS011;15142;48.888;9.134;2023-06-14T09:07:57;5.77;;;4.37;;
6549;SDS011;15142;48.888;9.134;2023-06-14T09:10:25;7.80;;;4.90;;
6549;SDS011;15142;48.888;9.134;2023-06-14T09:12:58;5.50;;;4.10;;
6549;SDS011;15142;48.888;9.134;2023-06-14T09:15:28;7.90;;;4.53;;
6549;SDS011;15142;48.888;9.134;2023-06-14T09:17:58;7.07;;;3.90;;
6549;SDS011;15142;48.888;9.134;2023-06-14T09:20:29;9.30;;;4.63;;
6549;SDS011;15142;48.888;9.134;2023-06-14T09:22:58;5.50;;;4.17;;
6549;SDS011;15142;48.888;9.134;2023-06-14T09:25:30;10.83;;;4.90;;
6549;SDS011;15142;48.888;9.134;2023-06-14T09:28:02;4.27;;;3.87;;
6549;SDS011;15142;48.888;9.134;2023-06-14T09:30:34;8.00;;;4.60;;
6549;SDS011;15142;48.888;9.134;2023-06-14T09:33:05;5.87;;;4.20;;
6549;SDS011;15142;48.888;9.134;2023-06-14T09:35:33;4.70;;;3.87;;
6549;SDS011;15142;48.888;9.134;2023-06-14T09:38:02;7.10;;;4.40;;
6549;SDS011;15142;48.888;9.134;2023-06-14T09:40:33;4.90;;;4.40;;
6549;SDS011;15142;48.888;9.134;2023-06-14T09:43:07;3.90;;;3.50;;
6549;SDS011;15142;48.888;9.134;2023-06-14T09:45:36;4.17;;;3.50;;
6549;SDS011;15142;48.888;9.134;2023-06-14T09:48:06;13.10;;;4.03;;
6549;SDS011;15142;48.888;9.134;2023-06-14T09:50:35;6.53;;;3.87;;
6549;SDS011;15142;48.888;9.134;2023-06-14T09:53:05;3.80;;;3.43;;
6549;SDS011;15142;48.888;9.134;2023-06-14T09:55:36;12.83;;;4.60;;
6549;SDS011;15142;48.888;9.134;2023-06-14T09:58:08;3.90;;;3.57;;
6549;SDS011;15142;48.888;9.134;2023-06-14T10:00:38;3.53;;;3.23;;
6549;SDS011;15142;48.888;9.134;2023-06-14T10:03:12;5.90;;;3.90;;
6549;SDS011;15142;48.888;9.134;2023-06-14T10:05:43;6.43;;;3.60;;
6549;SDS011;15142;48.888;9.134;2023-06-14T10:08:14;3.83;;;3.30;;
6549;SDS011;15142;48.888;9.134;2023-06-14T10:10:45;11.73;;;5.33;;
6549;SDS011;15142;48.888;9.134;2023-06-14T10:13:16;5.90;;;4.70;;
6549;SDS011;15142;48.888;9.134;2023-06-14T10:15:48;4.70;;;4.10;;
6549;SDS011;15142;48.888;9.134;2023-06-14T10:18:25;5.47;;;3.13;;
6549;SDS011;15142;48.888;9.134;2023-06-14T10:21:02;5.20;;;3.60;;
6549;SDS011;15142;48.888;9.134;2023-06-14T10:23:37;7.13;;;3.53;;
6549;SDS011;15142;48.888;9.134;2023-06-14T10:26:17;12.27;;;3.57;;
6549;SDS011;15142;48.888;9.134;2023-06-14T10:28:58;4.00;;;3.37;;
6549;SDS011;15142;48.888;9.134;2023-06-14T10:31:42;4.53;;;4.03;;
6549;SDS011;15142;48.888;9.134;2023-06-14T10:34:11;4.73;;;2.90;;
6549;SDS011;15142;48.888;9.134;2023-06-14T10:36:41;8.60;;;2.80;;
6549;SDS011;15142;48.888;9.134;2023-06-14T10:39:12;4.27;;;2.53;;
6549;SDS011;15142;48.888;9.134;2023-06-14T10:41:52;8.40;;;4.80;;
6549;SDS011;15142;48.888;9.134;2023-06-14T10:44:33;5.20;;;2.67;;
6549;SDS011;15142;48.888;9.134;2023-06-14T10:47:10;6.00;;;2.90;;
6549;SDS011;15142;48.888;9.134;2023-06-14T10:49:50;5.47;;;3.00;;
6549;SDS011;15142;48.888;9.134;2023-06-14T10:52:21;5.23;;;2.90;;
6549;SDS011;15142;48.888;9.134;2023-06-14T10:55:07;4.00;;;3.20;;
6549;SDS011;15142;48.888;9.134;2023-06-14T10:57:40;3.10;;;2.77;;
6549;SDS011;15142;48.888;9.134;2023-06-14T11:00:13;6.20;;;2.73;;
6549;SDS011;15142;48.888;9.134;2023-06-14T11:03:09;4.40;;;3.20;;
6549;SDS011;15142;48.888;9.134;2023-06-14T11:06:16;3.37;;;2.90;;
6549;SDS011;15142;48.888;9.134;2023-06-14T11:11:59;3.07;;;2.60;;
6549;SDS011;15142;48.888;9.134;2023-06-14T11:14:30;5.47;;;2.57;;
6549;SDS011;15142;48.888;9.134;2023-06-14T11:17:01;4.10;;;3.60;;
6549;SDS011;15142;48.888;9.134;2023-06-14T11:19:30;5.27;;;3.40;;
6549;SDS011;15142;48.888;9.134;2023-06-14T11:21:58;14.87;;;3.67;;
6549;SDS011;15142;48.888;9.134;2023-06-14T11:24:27;3.90;;;3.10;;
6549;SDS011;15142;48.888;9.134;2023-06-14T11:26:56;10.63;;;3.80;;
6549;SDS011;15142;48.888;9.134;2023-06-14T11:29:25;2.90;;;2.40;;
6549;SDS011;15142;48.888;9.134;2023-06-14T11:31:53;4.00;;;3.37;;
6549;SDS011;15142;48.888;9.134;2023-06-14T11:34:24;3.53;;;3.07;;
6549;SDS011;15142;48.888;9.134;2023-06-14T11:36:53;4.80;;;3.10;;
6549;SDS011;15142;48.888;9.134;2023-06-14T11:39:24;4.53;;;3.30;;
6549;SDS011;15142;48.888;9.134;2023-06-14T11:41:53;18.40;;;4.80;;
6549;SDS011;15142;48.888;9.134;2023-06-14T11:44:22;14.47;;;4.57;;
6549;SDS011;15142;48.888;9.134;2023-06-14T11:46:52;10.27;;;4.07;;
6549;SDS011;15142;48.888;9.134;2023-06-14T11:49:25;8.30;;;3.50;;
6549;SDS011;15142;48.888;9.134;2023-06-14T11:51:53;21.60;;;5.43;;
6549;SDS011;15142;48.888;9.134;2023-06-14T11:54:22;3.73;;;2.50;;
6549;SDS011;15142;48.888;9.134;2023-06-14T11:56:51;3.43;;;3.00;;
6549;SDS011;15142;48.888;9.134;2023-06-14T11:59:19;4.00;;;3.40;;
6549;SDS011;15142;48.888;9.134;2023-06-14T12:01:48;5.80;;;3.37;;
6549;SDS011;15142;48.888;9.134;2023-06-14T12:04:25;7.00;;;3.20;;
6549;SDS011;15142;48.888;9.134;2023-06-14T12:06:54;4.83;;;3.13;;
6549;SDS011;15142;48.888;9.134;2023-06-14T12:09:23;3.70;;;2.80;;
6549;SDS011;15142;48.888;9.134;2023-06-14T12:11:59;5.27;;;2.90;;
6549;SDS011;15142;48.888;9.134;2023-06-14T12:14:32;6.63;;;2.60;;
6549;SDS011;15142;48.888;9.134;2023-06-14T12:17:04;3.17;;;2.50;;
6549;SDS011;15142;48.888;9.134;2023-06-14T12:19:43;3.30;;;2.50;;
6549;SDS011;15142;48.888;9.134;2023-06-14T12:22:13;4.20;;;2.53;;
6549;SDS011;15142;48.888;9.134;2023-06-14T12:24:42;3.33;;;2.83;;
6549;SDS011;15142;48.888;9.134;2023-06-14T12:27:11;4.27;;;2.90;;
6549;SDS011;15142;48.888;9.134;2023-06-14T12:29:41;3.23;;;2.93;;
6549;SDS011;15142;48.888;9.134;2023-06-14T12:32:11;2.77;;;2.57;;
6549;SDS011;15142;48.888;9.134;2023-06-14T12:34:42;6.60;;;3.30;;
6549;SDS011;15142;48.888;9.134;2023-06-14T12:37:11;3.30;;;2.97;;
6549;SDS011;15142;48.888;9.134;2023-06-14T12:39:39;3.17;;;2.63;;
6549;SDS011;15142;48.888;9.134;2023-06-14T12:42:08;7.53;;;2.63;;
6549;SDS011;15142;48.888;9.134;2023-06-14T12:44:38;2.93;;;2.03;;
6549;SDS011;15142;48.888;9.134;2023-06-14T12:47:08;3.80;;;2.60;;
6549;SDS011;15142;48.888;9.134;2023-06-14T12:49:38;3.70;;;2.60;;
6549;SDS011;15142;48.888;9.134;2023-06-14T12:52:10;5.50;;;2.77;;
6549;SDS011;15142;48.888;9.134;2023-06-14T12:54:39;3.50;;;2.67;;
6549;SDS011;15142;48.888;9.134;2023-06-14T12:57:07;4.07;;;2.30;;
6549;SDS011;15142;48.888;9.134;2023-06-14T12:59:36;2.20;;;2.10;;
6549;SDS011;15142;48.888;9.134;2023-06-14T13:02:12;2.57;;;2.37;;
6549;SDS011;15142;48.888;9.134;2023-06-14T13:04:41;4.40;;;2.53;;
6549;SDS011;15142;48.888;9.134;2023-06-14T13:07:12;2.60;;;2.40;;
6549;SDS011;15142;48.888;9.134;2023-06-14T13:09:41;3.80;;;3.37;;
6549;SDS011;15142;48.888;9.134;2023-06-14T13:12:10;2.77;;;2.57;;
6549;SDS011;15142;48.888;9.134;2023-06-14T13:14:39;2.83;;;2.60;;
6549;SDS011;15142;48.888;9.134;2023-06-14T13:17:08;2.50;;;2.30;;
6549;SDS011;15142;48.888;9.134;2023-06-14T13:19:37;3.17;;;2.87;;
6549;SDS011;15142;48.888;9.134;2023-06-14T13:22:08;2.97;;;2.73;;
6549;SDS011;15142;48.888;9.134;2023-06-14T13:24:39;6.60;;;3.17;;
6549;SDS011;15142;48.888;9.134;2023-06-14T13:27:07;3.80;;;3.03;;
6549;SDS011;15142;48.888;9.134;2023-06-14T13:29:36;4.33;;;2.20;;
6549;SDS011;15142;48.888;9.134;2023-06-14T13:32:05;2.50;;;2.30;;
6549;SDS011;15142;48.888;9.134;2023-06-14T13:34:35;4.22;;;2.97;;
6549;SDS011;15142;48.888;9.134;2023-06-14T13:37:04;2.50;;;2.37;;
6549;SDS011;15142;48.888;9.134;2023-06-14T13:39:32;3.00;;;2.80;;
6549;SDS011;15142;48.888;9.134;2023-06-14T13:42:05;9.83;;;3.43;;
6549;SDS011;15142;48.888;9.134;2023-06-14T13:44:35;6.63;;;2.67;;
6549;SDS011;15142;48.888;9.134;2023-06-14T13:47:05;2.73;;;2.53;;
6549;SDS011;15142;48.888;9.134;2023-06-14T13:49:34;5.50;;;3.07;;
6549;SDS011;15142;48.888;9.134;2023-06-14T13:52:03;8.30;;;3.17;;
6549;SDS011;15142;48.888;9.134;2023-06-14T13:54:32;13.63;;;3.10;;
6549;SDS011;15142;48.888;9.134;2023-06-14T13:57:01;3.77;;;2.53;;
6549;SDS011;15142;48.888;9.134;2023-06-14T13:59:32;2.70;;;2.50;;
6549;SDS011;15142;48.888;9.134;2023-06-14T14:02:02;4.20;;;3.27;;
6549;SDS011;15142;48.888;9.134;2023-06-14T14:04:30;3.80;;;2.47;;
6549;SDS011;15142;48.888;9.134;2023-06-14T14:06:59;11.03;;;3.03;;
6549;SDS011;15142;48.888;9.134;2023-06-14T14:09:29;7.00;;;3.07;;
6549;SDS011;15142;48.888;9.134;2023-06-14T14:11:57;5.60;;;2.33;;
6549;SDS011;15142;48.888;9.134;2023-06-14T14:14:27;2.83;;;2.63;;
6549;SDS011;15142;48.888;9.134;2023-06-14T14:16:57;2.77;;;2.53;;
6549;SDS011;15142;48.888;9.134;2023-06-14T14:19:26;3.10;;;2.90;;
6549;SDS011;15142;48.888;9.134;2023-06-14T14:21:55;3.17;;;2.87;;
6549;SDS011;15142;48.888;9.134;2023-06-14T14:24:23;6.93;;;2.73;;
6549;SDS011;15142;48.888;9.134;2023-06-14T14:26:52;4.27;;;3.13;;
6549;SDS011;15142;48.888;9.134;2023-06-14T14:29:25;2.80;;;2.60;;
6549;SDS011;15142;48.888;9.134;2023-06-14T14:31:54;2.63;;;2.40;;
6549;SDS011;15142;48.888;9.134;2023-06-14T14:34:26;3.83;;;3.43;;
6549;SDS011;15142;48.888;9.134;2023-06-14T14:36:55;6.10;;;3.30;;
6549;SDS011;15142;48.888;9.134;2023-06-14T14:39:23;9.43;;;3.33;;
6549;SDS011;15142;48.888;9.134;2023-06-14T14:41:52;4.40;;;3.13;;
6549;SDS011;15142;48.888;9.134;2023-06-14T14:44:21;6.13;;;3.33;;
6549;SDS011;15142;48.888;9.134;2023-06-14T14:46:50;5.07;;;3.60;;
6549;SDS011;15142;48.888;9.134;2023-06-14T14:49:18;5.40;;;4.07;;
6549;SDS011;15142;48.888;9.134;2023-06-14T14:51:49;4.47;;;3.10;;
6549;SDS011;15142;48.888;9.134;2023-06-14T14:54:18;4.87;;;4.47;;
6549;SDS011;15142;48.888;9.134;2023-06-14T14:56:47;4.47;;;4.07;;
6549;SDS011;15142;48.888;9.134;2023-06-14T14:59:15;3.50;;;2.80;;
6549;SDS011;15142;48.888;9.134;2023-06-14T15:01:47;4.37;;;4.00;;
6549;SDS011;15142;48.888;9.134;2023-06-14T15:04:16;11.90;;;6.80;;
6549;SDS011;15142;48.888;9.134;2023-06-14T15:06:44;6.00;;;3.30;;
6549;SDS011;15142;48.888;9.134;2023-06-14T15:09:16;3.07;;;2.83;;
6549;SDS011;15142;48.888;9.134;2023-06-14T15:11:44;14.57;;;7.33;;
6549;SDS011;15142;48.888;9.134;2023-06-14T15:14:13;4.13;;;2.90;;
6549;SDS011;15142;48.888;9.134;2023-06-14T15:16:41;9.67;;;2.73;;
6549;SDS011;15142;48.888;9.134;2023-06-14T15:19:10;3.50;;;2.90;;
6549;SDS011;15142;48.888;9.134;2023-06-14T15:21:39;3.37;;;3.17;;